Chilo, Ohio
Current Conditions -  °F | °C
As of 12:53 AM on Sunday 28 Dec 2014 (Local Time) from KLUK Reporting Station
Light Rain Light Rain  
Wind Chill: 46°   Ceiling: 5000
Heat Index: 46°   Visibility: 8mi
Dew Point: 46°   Wind: 0mph
Humidity: 100%   Direction: NA
Pressure: 30.05"   Gusts: NA
Location:  38.8°N, 84.14°W
Report Text: KLUK 280553Z AUTO 00000KT 8SM -RA FEW011 BKN050 OVC060 08/08 A3005 RMK AO2 SLP176 P0004 60032 T00780078 10089 20078 58013
Loading
Personal Weather Stations






























Interactive Weather Map New forecast layout! Learn more

10-Day Weather Forecast

Advertisements
Track Severe Weather on mobile